Time;durP1;ratioP1;P1;durP2;ratioP2;P2;SDS_P1;SDS_P2;PMS_P1;PMS_P2;Temp;Humidity;BMP_temperature;BMP_pressure;BME280_temperature;BME280_humidity;BME280_pressure;Samples;Min_cycle;Max_cycle;Signal;HPM_P1;HPM_P2
2021/04/29 00:00:58;;;;;;;79.05;37.13;;;;;;;3.53;57.98;98237.86;4343568;80;21130;-82
2021/04/29 00:07:00;;;;;;;84.55;40.12;;;;;;;3.38;58.37;98236.48;4337896;80;21635;-82
2021/04/29 00:13:02;;;;;;;90.53;40.15;;;;;;;3.22;58.67;98233.73;4341969;80;21138;-82
2021/04/29 00:19:04;;;;;;;87.47;39.83;;;;;;;3.24;58.80;98226.07;4344890;80;21171;-82
2021/04/29 00:25:07;;;;;;;83.03;39.13;;;;;;;3.08;59.91;98232.79;4346738;80;21124;-82
2021/04/29 00:31:08;;;;;;;85.42;39.92;;;;;;;3.01;60.52;98231.78;4349299;80;21146;-82
2021/04/29 00:37:10;;;;;;;85.95;38.48;;;;;;;3.04;60.77;98235.14;4344038;80;21154;-82
2021/04/29 00:43:13;;;;;;;77.12;36.80;;;;;;;3.11;60.80;98242.13;4342326;80;21134;-82
2021/04/29 00:49:16;;;;;;;93.17;41.53;;;;;;;3.03;61.24;98237.64;4339986;80;21187;-82
2021/04/29 00:55:19;;;;;;;91.55;41.77;;;;;;;2.82;60.96;98241.87;4331595;80;21650;-82
2021/04/29 01:01:21;;;;;;;84.58;37.05;;;;;;;2.68;61.51;98236.05;4347364;80;21187;-83
2021/04/29 01:07:27;;;;;;;69.40;34.90;;;;;;;2.56;62.05;98244.74;4344632;81;21174;-82
2021/04/29 01:13:31;;;;;;;78.83;37.75;;;;;;;2.59;62.35;98238.66;4342773;80;21171;-82
2021/04/29 01:19:42;;;;;;;75.87;37.08;;;;;;;2.57;62.19;98236.30;4343629;80;21202;-82
2021/04/29 01:25:46;;;;;;;78.07;35.85;;;;;;;2.36;62.57;98234.31;4335523;80;21138;-82
2021/04/29 01:31:51;;;;;;;78.45;36.30;;;;;;;2.37;62.67;98226.42;4338175;80;21940;-82
2021/04/29 01:37:54;;;;;;;64.82;32.40;;;;;;;2.15;62.58;98224.74;4339044;80;21595;-82
2021/04/29 01:43:56;;;;;;;62.83;30.82;;;;;;;2.17;63.72;98231.40;4340139;80;21714;-82
2021/04/29 01:49:58;;;;;;;67.97;31.33;;;;;;;2.08;63.22;98222.63;4332263;80;21152;-83
2021/04/29 01:56:00;;;;;;;52.90;28.80;;;;;;;2.03;63.98;98227.45;4348398;80;21582;-82
2021/04/29 02:02:01;;;;;;;69.32;30.77;;;;;;;2.27;64.64;98229.57;4350747;80;21173;-82
2021/04/29 02:08:04;;;;;;;70.87;34.60;;;;;;;2.25;63.55;98215.64;4342989;80;21198;-82
2021/04/29 02:14:09;;;;;;;58.85;31.07;;;;;;;1.78;64.40;98219.91;4342090;80;21159;-82
2021/04/29 02:20:13;;;;;;;72.65;32.25;;;;;;;1.78;64.40;98219.91;4349914;80;21161;-82
2021/04/29 02:26:18;;;;;;;57.75;28.32;;;;;;;1.58;64.49;98188.41;4347849;80;21138;-82
2021/04/29 02:32:20;;;;;;;67.70;32.90;;;;;;;1.68;65.61;98203.38;4342393;80;21628;-82
2021/04/29 02:38:22;;;;;;;60.25;31.20;;;;;;;1.81;65.26;98205.74;4342264;80;21126;-82
2021/04/29 02:44:24;;;;;;;62.00;30.65;;;;;;;1.59;64.99;98204.81;4339617;80;21587;-81
2021/04/29 02:50:26;;;;;;;52.83;26.20;;;;;;;1.56;66.70;98208.98;4319742;80;21525;-82
2021/04/29 02:56:27;;;;;;;59.40;28.57;;;;;;;1.85;67.00;98218.78;4350393;80;21166;-81
2021/04/29 03:02:29;;;;;;;65.25;32.85;;;;;;;2.25;67.17;98219.69;4344575;80;21146;-81
2021/04/29 03:08:31;;;;;;;62.40;30.85;;;;;;;2.23;66.39;98205.73;4335742;80;21288;-82
2021/04/29 03:14:33;;;;;;;75.50;31.75;;;;;;;2.23;66.39;98205.73;4342059;80;21141;-83
2021/04/29 03:20:34;;;;;;;71.60;33.38;;;;;;;2.56;66.69;98223.92;4337774;80;21203;-82
2021/04/29 03:26:36;;;;;;;79.87;35.30;;;;;;;2.56;66.75;98229.88;4347689;80;21861;-82
2021/04/29 03:32:39;;;;;;;68.83;33.05;;;;;;;2.59;66.79;98221.89;4346052;80;21183;-82
2021/04/29 03:38:40;;;;;;;70.78;34.67;;;;;;;2.52;67.01;98219.55;4344997;80;21114;-82
2021/04/29 03:44:42;;;;;;;70.22;35.05;;;;;;;2.64;67.40;98216.80;4344854;81;21590;-82
2021/04/29 03:50:43;;;;;;;69.17;33.18;;;;;;;2.80;67.49;98204.92;4357783;80;21223;-82
2021/04/29 03:56:46;;;;;;;75.03;36.53;;;;;;;2.97;67.44;98208.72;4348066;80;21564;-83
2021/04/29 04:02:47;;;;;;;63.50;30.62;;;;;;;3.23;67.89;98208.25;4339744;80;21219;-82
2021/04/29 04:08:49;;;;;;;64.15;31.73;;;;;;;3.34;67.76;98205.83;4341869;80;21209;-83
2021/04/29 04:14:50;;;;;;;57.33;31.65;;;;;;;3.58;68.11;98207.05;4335020;80;21620;-82
2021/04/29 04:20:52;;;;;;;67.12;32.17;;;;;;;3.80;68.52;98205.90;4344122;80;21166;-83
2021/04/29 04:26:53;;;;;;;64.53;31.87;;;;;;;4.01;68.56;98204.28;4346327;80;21183;-82
2021/04/29 04:32:54;;;;;;;63.05;29.07;;;;;;;4.17;68.41;98200.41;4336860;80;21204;-82
2021/04/29 04:38:56;;;;;;;56.30;29.40;;;;;;;4.42;68.60;98208.53;4343329;81;21187;-83
2021/04/29 04:44:57;;;;;;;58.90;28.35;;;;;;;4.69;68.46;98214.92;4347463;81;21332;-88
2021/04/29 04:51:02;;;;;;;49.05;27.10;;;;;;;4.92;68.20;98209.02;4335671;81;21178;-88
2021/04/29 04:57:12;;;;;;;45.40;24.37;;;;;;;5.06;67.61;98198.45;4301169;80;21194;-88
2021/04/29 05:03:26;;;;;;;46.08;24.47;;;;;;;5.20;67.99;98200.67;4242254;82;21165;-88
2021/04/29 05:09:33;;;;;;;46.75;24.65;;;;;;;5.45;67.87;98192.43;4296052;83;21262;-88
2021/04/29 05:15:41;;;;;;;47.23;25.27;;;;;;;5.70;67.81;98200.45;4273413;83;21301;-88
2021/04/29 05:21:49;;;;;;;53.15;25.17;;;;;;;6.02;67.67;98186.84;4316986;83;21171;-88
2021/04/29 05:28:03;;;;;;;47.55;23.80;;;;;;;6.37;67.33;98188.75;4317949;83;21686;-87
2021/04/29 05:34:06;;;;;;;49.23;25.70;;;;;;;6.68;67.12;98187.05;4233369;82;21245;-93
2021/04/29 05:40:08;;;;;;;47.53;24.85;;;;;;;6.92;67.06;98193.97;4305145;81;22490;-92
2021/04/29 05:46:10;;;;;;;60.03;24.72;;;;;;;7.28;66.67;98189.91;4303562;82;21174;-93
2021/04/29 05:52:11;;;;;;;42.65;23.02;;;;;;;7.56;66.10;98181.28;4298259;81;21182;-93
2021/04/29 05:58:13;;;;;;;41.50;23.38;;;;;;;7.77;65.80;98178.17;4303155;81;21166;-92
2021/04/29 06:04:15;;;;;;;44.23;22.55;;;;;;;7.99;65.54;98179.13;4325441;81;21243;-92
2021/04/29 06:10:16;;;;;;;41.68;20.97;;;;;;;8.25;65.34;98166.72;4316878;80;21327;-92
2021/04/29 06:16:18;;;;;;;43.00;20.32;;;;;;;8.60;65.21;98164.20;4324196;82;21190;-90
2021/04/29 06:22:20;;;;;;;42.25;22.62;;;;;;;8.90;65.32;98162.59;4318626;81;21199;-91
2021/04/29 06:28:21;;;;;;;46.33;22.80;;;;;;;9.14;64.82;98155.87;4320961;81;21172;-93
2021/04/29 06:34:23;;;;;;;56.70;26.12;;;;;;;9.41;64.54;98158.47;4322730;81;21162;-93
2021/04/29 06:40:25;;;;;;;62.78;25.43;;;;;;;9.75;64.50;98156.77;4327259;82;21178;-92
2021/04/29 06:46:26;;;;;;;43.80;24.12;;;;;;;10.03;64.10;98149.37;4320950;82;21188;-93
2021/04/29 06:52:28;;;;;;;57.33;23.07;;;;;;;10.33;63.68;98149.77;4320805;81;21215;-87
2021/04/29 06:58:33;;;;;;;48.42;23.00;;;;;;;10.68;63.52;98152.41;4330559;82;21278;-89
2021/04/29 07:04:34;;;;;;;62.58;23.65;;;;;;;10.99;63.54;98151.52;4335861;82;21247;-88
2021/04/29 07:10:36;;;;;;;51.02;22.62;;;;;;;11.41;62.79;98145.07;4335644;82;21192;-88
2021/04/29 07:16:37;;;;;;;41.80;21.15;;;;;;;11.75;62.05;98146.63;4334609;82;21160;-88
2021/04/29 07:22:39;;;;;;;45.90;23.05;;;;;;;11.96;61.62;98148.65;4335562;82;21294;-87
2021/04/29 07:28:42;;;;;;;45.23;22.48;;;;;;;12.14;61.32;98141.03;4314405;82;21206;-89
2021/04/29 07:34:44;;;;;;;45.63;22.87;;;;;;;12.34;61.06;98143.39;4336835;82;21136;-89
2021/04/29 07:40:46;;;;;;;41.77;23.12;;;;;;;12.47;60.67;98140.34;4337581;82;21183;-89
2021/04/29 07:46:49;;;;;;;42.73;21.33;;;;;;;12.54;60.48;98132.02;4335560;82;21290;-88
2021/04/29 07:52:51;;;;;;;37.08;21.07;;;;;;;12.73;60.40;98132.03;4334558;82;21239;-87
2021/04/29 07:58:53;;;;;;;43.13;20.25;;;;;;;13.05;59.97;98124.20;4333461;82;21383;-88
2021/04/29 08:04:54;;;;;;;30.65;15.38;;;;;;;13.51;59.90;98123.59;4334406;82;21659;-89
2021/04/29 08:10:56;;;;;;;25.80;13.20;;;;;;;14.39;59.68;98111.97;4331883;82;21196;-88
2021/04/29 08:16:57;;;;;;;9.48;6.40;;;;;;;16.05;57.88;98105.08;4330059;82;21215;-86
2021/04/29 08:22:59;;;;;;;11.40;5.00;;;;;;;17.07;54.93;98098.36;4329846;82;21593;-86
2021/04/29 08:29:01;;;;;;;6.53;3.83;;;;;;;17.83;52.34;98090.14;4329544;82;21192;-88
2021/04/29 08:35:03;;;;;;;6.83;4.15;;;;;;;17.44;48.99;98085.03;4330028;82;21620;-89
2021/04/29 08:41:05;;;;;;;8.00;3.60;;;;;;;17.40;41.56;98077.46;4332744;81;21196;-87
2021/04/29 08:47:06;;;;;;;6.00;3.72;;;;;;;17.80;45.84;98066.91;4405990;80;21178;-88
2021/04/29 08:53:08;;;;;;;7.30;4.10;;;;;;;18.61;44.04;98060.00;4405631;80;21551;-88
2021/04/29 08:59:09;;;;;;;9.55;3.65;;;;;;;18.93;46.49;98060.23;4342065;81;21148;-89
2021/04/29 09:05:16;;;;;;;7.70;4.10;;;;;;;18.73;45.81;98055.00;4349450;82;21173;-89
2021/04/29 09:11:19;;;;;;;7.33;3.80;;;;;;;18.59;45.97;98055.50;4377560;81;21181;-91
2021/04/29 09:17:24;;;;;;;5.65;3.42;;;;;;;18.28;45.20;98048.46;4349089;82;21190;-88
2021/04/29 09:23:32;;;;;;;5.72;3.65;;;;;;;18.69;45.77;98036.34;4344573;82;21183;-88
2021/04/29 09:29:34;;;;;;;9.88;3.50;;;;;;;19.56;44.00;98030.07;4332910;82;21235;-90
2021/04/29 09:35:40;;;;;;;7.70;4.05;;;;;;;20.16;43.01;98020.03;4336862;82;21185;-89
2021/04/29 09:41:48;;;;;;;;;;;;;;;20.63;43.30;98014.79;4325727;81;21604;-88
2021/04/29 09:48:05;;;;;;;6.33;3.50;;;;;;;20.39;40.87;98008.95;4331203;81;20225;-90
2021/04/29 09:54:07;;;;;;;10.58;2.60;;;;;;;20.27;43.35;98004.29;4330603;82;21173;-91
2021/04/29 10:00:11;;;;;;;7.40;1.98;;;;;;;20.57;42.69;97995.80;4331625;81;21221;-91
2021/04/29 10:06:15;;;;;;;5.87;3.08;;;;;;;21.02;43.02;97984.61;4309317;81;21187;-90
2021/04/29 10:12:20;;;;;;;6.83;2.37;;;;;;;21.66;42.44;97982.31;4330663;82;21304;-88
2021/04/29 10:18:22;;;;;;;8.33;2.02;;;;;;;21.89;38.75;97978.82;4330846;82;21183;-89
2021/04/29 10:24:25;;;;;;;10.03;2.30;;;;;;;21.88;40.14;97982.83;4330661;82;21151;-92
2021/04/29 10:30:36;;;;;;;11.10;2.85;;;;;;;21.56;41.43;97974.63;4330114;81;21187;-90
2021/04/29 10:36:50;;;;;;;6.95;2.47;;;;;;;21.26;42.09;97985.47;4332920;82;21166;-91
2021/04/29 10:42:52;;;;;;;9.95;3.15;;;;;;;21.22;41.01;97986.23;4335425;82;21174;-91
2021/04/29 10:48:54;;;;;;;8.65;3.42;;;;;;;21.42;40.77;97983.67;4334128;82;21198;-91
2021/04/29 10:54:59;;;;;;;5.92;2.42;;;;;;;21.17;41.81;97981.94;4333173;82;21166;-91
2021/04/29 11:01:19;;;;;;;5.65;3.00;;;;;;;20.79;42.25;97989.44;4366187;81;21182;-92
2021/04/29 11:07:32;;;;;;;7.08;3.35;;;;;;;20.86;40.02;97993.91;4360633;81;21652;-91
2021/04/29 11:13:39;;;;;;;3.65;2.50;;;;;;;20.51;42.72;97992.11;4388068;81;21146;-91
2021/04/29 11:19:57;;;;;;;5.87;2.85;;;;;;;20.74;42.10;97994.23;4388617;81;21139;-90
2021/04/29 11:26:16;;;;;;;9.75;3.22;;;;;;;20.65;42.58;98003.98;4387663;81;21583;-89
2021/04/29 11:32:19;;;;;;;6.75;3.17;;;;;;;20.37;43.16;98001.07;4387846;81;21174;-90
2021/04/29 11:38:21;;;;;;;7.95;4.78;;;;;;;20.20;43.56;98010.31;4387821;81;21186;-91
2021/04/29 11:44:23;;;;;;;10.30;4.20;;;;;;;19.91;44.42;98031.39;4387094;81;21159;-89
2021/04/29 11:50:31;;;;;;;9.35;4.15;;;;;;;19.84;44.66;98028.92;4387664;81;21158;-88
2021/04/29 11:56:48;;;;;;;12.35;5.15;;;;;;;19.95;44.92;98029.25;4387368;81;21182;-89
2021/04/29 12:02:59;;;;;;;14.68;5.05;;;;;;;20.33;44.16;98015.72;4368696;80;21191;-89
2021/04/29 12:09:11;;;;;;;8.03;4.47;;;;;;;20.89;44.39;98011.80;4349115;81;21163;-90
2021/04/29 12:15:15;;;;;;;7.97;4.10;;;;;;;21.86;43.11;98002.67;4363052;81;21152;-94
2021/04/29 12:21:21;;;;;;;8.35;4.53;;;;;;;21.59;42.49;98008.52;4321447;82;21196;-90
2021/04/29 12:27:23;;;;;;;8.73;4.40;;;;;;;21.64;42.21;98013.42;4317653;82;21604;-89
2021/04/29 12:33:26;;;;;;;8.05;5.00;;;;;;;22.13;42.13;98013.00;4317971;82;21608;-91
2021/04/29 12:39:40;;;;;;;7.37;4.47;;;;;;;22.36;40.63;98011.45;4317911;82;21600;-91
2021/04/29 12:45:57;;;;;;;7.72;5.05;;;;;;;21.80;39.11;98012.28;4318140;82;21180;-89
2021/04/29 12:52:11;;;;;;;8.98;4.30;;;;;;;21.57;41.12;97997.69;4318249;82;21208;-93
2021/04/29 12:58:15;;;;;;;12.85;4.03;;;;;;;22.14;40.69;97991.48;4318249;82;21183;-91
2021/04/29 13:04:24;;;;;;;6.78;3.87;;;;;;;22.70;39.12;98001.89;4317821;82;21310;-91
2021/04/29 13:10:28;;;;;;;9.65;4.12;;;;;;;22.52;38.06;98002.03;4323212;82;21638;-89
2021/04/29 13:16:48;;;;;;;6.37;3.80;;;;;;;23.02;38.53;97996.73;4330722;82;21163;-90
2021/04/29 13:23:05;;;;;;;8.98;5.15;;;;;;;23.57;37.84;98000.33;4300953;82;21152;-90
2021/04/29 13:29:13;;;;;;;14.55;6.00;;;;;;;23.51;38.45;97996.69;4235501;82;21299;-90
2021/04/29 13:35:22;;;;;;;20.20;6.33;;;;;;;23.51;37.30;97994.64;4351059;81;21177;-90
2021/04/29 13:41:31;;;;;;;12.50;6.33;;;;;;;23.63;37.66;97992.17;4350572;82;21161;-90
2021/04/29 13:47:33;;;;;;;45.20;9.20;;;;;;;23.78;37.15;97977.52;4349647;82;21154;-91
2021/04/29 13:53:34;;;;;;;13.15;6.67;;;;;;;23.79;36.88;97975.50;4360835;81;21154;-92
2021/04/29 13:59:43;;;;;;;11.33;6.12;;;;;;;23.72;37.10;97958.52;4349067;80;21225;-88
2021/04/29 14:05:49;;;;;;;11.15;5.80;;;;;;;23.63;36.61;97968.42;4335428;81;21186;-90
2021/04/29 14:11:57;;;;;;;10.18;5.28;;;;;;;23.46;36.77;97968.78;4309871;81;21192;-90
2021/04/29 14:18:00;;;;;;;12.30;5.17;;;;;;;23.51;36.70;97972.30;4330257;82;21622;-92
2021/04/29 14:24:07;;;;;;;7.45;5.45;;;;;;;22.77;37.03;97974.24;4340117;82;21607;-93
2021/04/29 14:30:10;;;;;;;10.40;6.12;;;;;;;22.67;36.62;97979.14;4341574;81;21165;-89
2021/04/29 14:36:11;;;;;;;10.43;6.17;;;;;;;22.69;36.81;97974.47;4347289;82;21146;-91
2021/04/29 14:42:13;;;;;;;10.65;6.15;;;;;;;22.80;36.76;97986.58;4347210;82;21154;-88
2021/04/29 14:48:15;;;;;;;9.08;5.30;;;;;;;22.72;36.58;97993.03;4346008;82;21178;-90
2021/04/29 14:54:16;;;;;;;9.63;6.47;;;;;;;22.76;36.93;97995.78;4345320;82;21162;-87
2021/04/29 15:00:19;;;;;;;12.95;7.22;;;;;;;22.36;36.83;97986.36;4338630;82;21193;-88
2021/04/29 15:06:23;;;;;;;11.00;6.87;;;;;;;21.70;37.61;97985.71;4318544;83;21611;-86
2021/04/29 15:12:25;;;;;;;13.80;7.42;;;;;;;21.22;37.86;97979.28;4316609;83;21143;-89
2021/04/29 15:18:31;;;;;;;13.38;7.67;;;;;;;21.28;38.54;97966.90;4314180;82;21321;-90
2021/04/29 15:24:32;;;;;;;11.12;7.00;;;;;;;21.37;39.23;97968.25;4313854;83;21226;-88
2021/04/29 15:30:33;;;;;;;15.32;7.35;;;;;;;21.33;40.51;97967.02;4269375;82;21287;-87
2021/04/29 15:36:35;;;;;;;11.90;7.53;;;;;;;20.65;40.50;97971.23;4264456;83;21183;-87
2021/04/29 15:42:37;;;;;;;11.70;7.55;;;;;;;20.51;41.61;97975.42;4264484;82;21251;-87
2021/04/29 15:48:38;;;;;;;12.80;7.65;;;;;;;20.68;41.10;97967.51;4182582;85;21205;-86
2021/04/29 15:54:40;;;;;;;12.65;6.87;;;;;;;20.82;40.71;97971.03;4252641;83;22012;-87
2021/04/29 16:00:42;;;;;;;10.80;6.40;;;;;;;20.87;40.62;97968.41;4250811;81;21703;-88
2021/04/29 16:06:43;;;;;;;10.60;6.80;;;;;;;20.68;40.85;97972.46;4278181;82;21199;-88
2021/04/29 16:12:45;;;;;;;12.70;7.10;;;;;;;20.35;41.79;97978.52;4289884;82;21195;-88
2021/04/29 16:18:46;;;;;;;13.88;7.08;;;;;;;20.09;42.34;97975.23;4283405;82;21195;-88
2021/04/29 16:24:52;;;;;;;14.73;7.17;;;;;;;19.95;42.22;97973.70;4254406;84;21202;-88
2021/04/29 16:30:52;;;;;;;13.48;7.05;;;;;;;19.69;42.45;97971.80;4255551;84;21456;-88
2021/04/29 16:36:54;;;;;;;13.30;7.47;;;;;;;19.42;42.77;97970.33;4255784;83;21376;-87
2021/04/29 16:42:55;;;;;;;13.88;8.58;;;;;;;19.25;42.89;97973.78;4255590;83;21194;-88
2021/04/29 16:48:57;;;;;;;11.50;6.37;;;;;;;19.10;43.60;97976.96;4254646;84;21202;-87
2021/04/29 16:54:58;;;;;;;12.90;7.58;;;;;;;18.84;43.99;97981.16;4242249;83;21192;-88
2021/04/29 17:01:01;;;;;;;8.93;5.80;;;;;;;18.64;44.85;97983.65;4228028;81;21593;-88
2021/04/29 17:07:03;;;;;;;8.75;5.33;;;;;;;18.52;45.03;97983.72;4329506;82;21178;-93
2021/04/29 17:13:04;;;;;;;11.15;6.20;;;;;;;18.25;46.46;97991.19;4340844;82;21143;-93
2021/04/29 17:19:06;;;;;;;12.75;6.08;;;;;;;18.21;45.70;98000.22;4339340;82;21155;-93
2021/04/29 17:25:15;;;;;;;13.53;7.50;;;;;;;18.10;47.48;98008.75;4337030;82;21170;-93
2021/04/29 17:31:12;;;;;;;14.65;8.93;;;;;;;17.78;47.38;98004.89;4341228;81;21123;-93
2021/04/29 17:37:13;;;;;;;25.12;12.28;;;;;;;17.66;47.04;98000.16;4344846;80;21158;-93
2021/04/29 17:43:17;;;;;;;27.60;13.35;;;;;;;17.57;47.24;98002.20;4349276;81;21702;-92
2021/04/29 17:49:18;;;;;;;72.53;30.27;;;;;;;17.49;47.43;97999.53;4336342;80;21170;-91
2021/04/29 17:55:20;;;;;;;21.87;11.73;;;;;;;17.33;47.69;98003.77;4342828;80;21183;-92
2021/04/29 18:01:22;;;;;;;18.60;10.32;;;;;;;17.09;48.01;98006.67;4343274;80;21187;-93
2021/04/29 18:07:24;;;;;;;24.70;12.15;;;;;;;16.70;48.49;98012.58;4346115;81;21170;-91
2021/04/29 18:13:25;;;;;;;53.40;26.45;;;;;;;16.34;49.10;98010.61;4350788;81;21182;-91
2021/04/29 18:19:28;;;;;;;105.37;53.55;;;;;;;16.05;50.04;98023.05;4347501;81;21147;-92
2021/04/29 18:25:29;;;;;;;64.90;28.27;;;;;;;15.73;50.43;98037.45;4338813;82;21175;-92
2021/04/29 18:31:32;;;;;;;62.27;26.30;;;;;;;15.51;51.19;98039.36;4327994;82;21190;-92
2021/04/29 18:37:34;;;;;;;73.75;36.60;;;;;;;15.26;51.58;98046.61;4328014;82;21214;-91
2021/04/29 18:43:36;;;;;;;44.75;21.27;;;;;;;14.98;51.93;98054.91;4385015;81;21362;-95
2021/04/29 18:49:38;;;;;;;36.00;20.43;;;;;;;14.96;52.10;98058.69;4402997;81;21182;-93
2021/04/29 18:55:39;;;;;;;41.15;23.85;;;;;;;14.69;52.53;98064.95;4403063;80;21360;-93
2021/04/29 19:01:42;;;;;;;111.15;54.48;;;;;;;14.67;52.77;98072.88;4403511;81;21678;-92
2021/04/29 19:07:43;;;;;;;59.13;37.60;;;;;;;14.61;52.81;98066.28;4352241;80;21623;-93
2021/04/29 19:13:45;;;;;;;32.83;21.33;;;;;;;14.85;52.92;98082.14;4346996;82;21166;-92
2021/04/29 19:19:47;;;;;;;29.98;17.27;;;;;;;14.81;53.15;98084.99;4342475;82;21607;-91
2021/04/29 19:25:48;;;;;;;44.67;27.40;;;;;;;14.78;53.45;98101.00;4345012;82;21189;-90
2021/04/29 19:31:50;;;;;;;41.80;22.95;;;;;;;14.66;53.77;98098.09;4348715;82;21186;-92
2021/04/29 19:37:53;;;;;;;63.65;33.35;;;;;;;14.49;53.97;98097.22;4338079;82;21392;-91
2021/04/29 19:43:55;;;;;;;55.85;31.02;;;;;;;14.29;54.45;98088.74;4327461;82;21195;-92
2021/04/29 19:49:56;;;;;;;51.70;30.62;;;;;;;14.17;55.00;98090.12;4327387;82;21188;-92
2021/04/29 19:55:58;;;;;;;36.80;21.05;;;;;;;13.95;55.40;98082.05;4327802;82;21208;-92
2021/04/29 20:02:00;;;;;;;40.50;22.02;;;;;;;13.72;55.93;98087.51;4327716;82;21199;-93
2021/04/29 20:08:03;;;;;;;56.68;31.52;;;;;;;13.61;56.33;98073.14;4327898;82;21152;-92
2021/04/29 20:14:04;;;;;;;48.55;25.55;;;;;;;13.47;56.72;98069.23;4328313;82;21223;-92
2021/04/29 20:20:10;;;;;;;45.15;24.57;;;;;;;13.40;57.38;98059.73;4327903;82;21192;-92
2021/04/29 20:26:12;;;;;;;33.40;18.17;;;;;;;13.33;58.01;98063.95;4328165;82;21219;-92
2021/04/29 20:32:13;;;;;;;27.80;17.07;;;;;;;13.30;58.00;98062.83;4328198;82;21223;-91
2021/04/29 20:38:15;;;;;;;26.90;15.58;;;;;;;13.55;58.11;98065.19;4332877;82;21187;-91
2021/04/29 20:44:17;;;;;;;32.93;17.87;;;;;;;13.56;58.24;98068.90;4333104;82;21190;-92
2021/04/29 20:50:18;;;;;;;26.93;13.80;;;;;;;13.60;58.17;98074.34;4373683;81;21607;-91
2021/04/29 20:56:22;;;;;;;29.42;17.30;;;;;;;13.42;58.31;98080.11;4334523;82;21171;-91
2021/04/29 21:02:24;;;;;;;37.70;20.88;;;;;;;13.32;58.92;98087.94;4332753;82;21179;-90
2021/04/29 21:08:26;;;;;;;33.85;19.73;;;;;;;13.24;59.06;98080.97;4333810;82;21192;-92
2021/04/29 21:14:27;;;;;;;38.40;21.12;;;;;;;13.08;59.31;98083.55;4328117;82;21156;-91
2021/04/29 21:20:32;;;;;;;39.38;20.05;;;;;;;12.91;59.31;98081.78;4338319;82;21213;-92
2021/04/29 21:26:33;;;;;;;41.45;21.93;;;;;;;12.70;59.72;98093.01;4309473;82;21160;-91
2021/04/29 21:32:36;;;;;;;43.10;24.12;;;;;;;12.58;60.15;98086.10;4329824;82;21446;-93
2021/04/29 21:38:37;;;;;;;43.75;24.07;;;;;;;12.53;60.49;98097.52;4330165;82;21176;-91
2021/04/29 21:44:39;;;;;;;51.30;29.80;;;;;;;12.32;60.65;98097.73;4330147;82;21856;-92
2021/04/29 21:50:41;;;;;;;55.40;31.82;;;;;;;12.12;61.08;98097.38;4330361;82;21188;-92
2021/04/29 21:56:42;;;;;;;46.48;27.77;;;;;;;11.94;61.58;98092.62;4330087;82;21171;-91
2021/04/29 22:02:44;;;;;;;48.78;26.73;;;;;;;11.86;62.27;98097.39;4328255;81;21246;-91
2021/04/29 22:08:51;;;;;;;48.95;26.82;;;;;;;11.82;62.31;98095.28;4329941;82;21226;-92
2021/04/29 22:14:48;;;;;;;55.60;29.60;;;;;;;11.70;62.65;98099.11;4329883;82;21318;-92
2021/04/29 22:20:50;;;;;;;49.77;26.77;;;;;;;11.55;63.02;98088.01;4329947;82;21159;-91
2021/04/29 22:26:52;;;;;;;48.83;26.57;;;;;;;11.51;63.28;98091.38;4329971;82;21207;-93
2021/04/29 22:32:54;;;;;;;41.53;23.67;;;;;;;11.39;63.62;98079.50;4330228;82;21168;-92
2021/04/29 22:38:57;;;;;;;47.58;25.77;;;;;;;11.28;63.84;98087.80;4338375;81;21154;-84
2021/04/29 22:44:59;;;;;;;54.95;27.82;;;;;;;11.27;64.18;98089.57;4347648;81;21700;-83
2021/04/29 22:51:00;;;;;;;48.63;24.95;;;;;;;11.30;64.38;98095.03;4347367;80;21165;-84
2021/04/29 22:57:02;;;;;;;37.10;22.02;;;;;;;11.23;64.84;98095.67;4342229;81;21355;-84
2021/04/29 23:03:04;;;;;;;41.35;22.02;;;;;;;11.23;65.28;98086.09;4340731;81;21178;-84
2021/04/29 23:09:06;;;;;;;36.30;20.60;;;;;;;11.24;65.14;98090.38;4335717;81;21170;-83
2021/04/29 23:15:11;;;;;;;38.92;19.80;;;;;;;10.98;65.39;98081.51;4339350;81;21190;-83
2021/04/29 23:21:12;;;;;;;33.50;20.12;;;;;;;10.96;65.67;98066.67;4344645;81;21630;-84
2021/04/29 23:27:14;;;;;;;37.95;19.10;;;;;;;10.96;65.95;98070.17;4345407;81;21213;-85
2021/04/29 23:33:17;;;;;;;31.62;17.45;;;;;;;10.71;66.18;98057.19;4349457;81;21754;-83
2021/04/29 23:39:19;;;;;;;30.25;16.25;;;;;;;10.70;66.60;98067.95;4343953;81;21193;-84
2021/04/29 23:45:21;;;;;;;26.07;14.30;;;;;;;10.68;66.62;98073.65;4349093;81;21208;-84
2021/04/29 23:51:22;;;;;;;26.42;15.43;;;;;;;10.45;66.60;98078.79;4349590;81;21499;-83
2021/04/29 23:57:24;;;;;;;31.45;19.30;;;;;;;10.29;67.11;98088.04;4334912;80;21169;-83
